39VA weather

CLOSED Kingstowne Heliport
Kingstowne, Virginia, United States

Public forecast

Using degrees Fahrenheit for public forecast. Weather courtesy of forecast.io.

Closest aviation weather report (METAR) to Kingstowne Heliport

Closest report is Davison Army Air Field, 3.9 nm (7.2 km) SSW. Retrieved 2020/05/26 05:56 UTC (21 minutes ago):

KDAA 260556Z AUTO 00000KT 10SM CLR 15/14 A3017 RMK AO2 SLP219 T01450137 10221 20145 58002 TSNO

Closest aviation forecast (TAF) to Kingstowne Heliport

Forecast is more than 12 hours old.

Closest forecast is Davison Army Air Field, 3.9 nm (7.2 km) SSW. Retrieved 2020-05-23 01:24 UTC (3 days ago):

TAF KDAA 230100Z 2301/2407 VRB06KT 9000 BR SCT020 QNH2998INS BECMG 2303/2304 VRB06KT 9000 BR SCT010 BKN020 QNH2997INS BECMG 2304/2306 VRB06KT 8000 -SHRA OVC010 QNH2997INS BECMG 2312/2313 30009KT 9999 NSW SCT010 BKN030 QNH3002INS BECMG 2315/2316 30006KT 9999 FEW060 QNH2996INS BECMG 2402/2403 03006KT 9999 SCT030 BKN050 QNH3003INS TX28/2321Z TN16/2309Z LAST NO AMDS AFT 2301 NEXT 2609